Orbital elements of FENGYUN 1C DEB
| Launched | 9 May 1999 |
| Flight ended | – |
| Launch site | Taiyuan Space Center, PRC |
| Owner | People's Republic of China |
| NORAD ID | 30462 |
| Date fetched |
Epoch osculation |
Inc. [°] |
Ecc. | RA asc node [hr] |
Arg Peri. [°] |
Mean anom [°] |
Mean motion [rev/day] |
Abs. mag |
| Date fetched |
Epoch osculation |
Inc. [°] |
Ecc. | RA asc node [hr] |
Arg Peri. [°] |
Mean anom [°] |
Mean motion [rev/day] |
Abs. mag |
| 2026 May 05 17:57 | 2026 May 05 10:51:53 | 98.8300 | 0.01390 | 7.6755 | 206.3058 | 306.8638 | 14.06380 | – |
| 2026 May 04 17:57 | 2026 Apr 30 11:20:37 | 98.8301 | 0.01387 | 7.3514 | 220.3627 | 306.8638 | 14.06380 | – |
| 2026 May 03 17:57 | 2026 Apr 30 11:20:37 | 98.8301 | 0.01387 | 7.3514 | 220.3627 | 306.8638 | 14.06380 | – |
| 2026 May 02 17:57 | 2026 Apr 30 11:20:37 | 98.8301 | 0.01387 | 7.3514 | 220.3627 | 306.8638 | 14.06380 | – |
| 2026 May 01 17:56 | 2026 Apr 30 11:20:37 | 98.8301 | 0.01387 | 7.3514 | 220.3627 | 306.8638 | 14.06380 | – |
| 2026 Apr 30 17:56 | 2026 Apr 30 11:20:37 | 98.8301 | 0.01387 | 7.3514 | 220.3627 | 306.8638 | 14.06380 | – |
| 2026 Apr 29 17:57 | 2026 Apr 24 11:47:49 | 98.8297 | 0.01386 | 6.9622 | 237.2586 | 306.8638 | 14.06380 | – |
| 2026 Apr 28 17:56 | 2026 Apr 24 11:47:49 | 98.8297 | 0.01386 | 6.9622 | 237.2586 | 306.8638 | 14.06380 | – |
| 2026 Apr 27 17:58 | 2026 Apr 24 11:47:49 | 98.8297 | 0.01386 | 6.9622 | 237.2586 | 306.8638 | 14.06380 | – |
| 2026 Apr 26 17:58 | 2026 Apr 24 11:47:49 | 98.8297 | 0.01386 | 6.9622 | 237.2586 | 306.8638 | 14.06380 | – |
| 2026 Apr 25 17:58 | 2026 Apr 24 11:47:49 | 98.8297 | 0.01386 | 6.9622 | 237.2586 | 306.8638 | 14.06380 | – |
| 2026 Apr 24 17:59 | 2026 Apr 24 11:47:49 | 98.8297 | 0.01386 | 6.9622 | 237.2586 | 306.8638 | 14.06380 | – |
| 2026 Apr 23 17:57 | 2026 Apr 19 04:54:29 | 98.8296 | 0.01385 | 6.6181 | 252.2330 | 306.8638 | 14.06380 | – |
| 2026 Apr 22 17:57 | 2026 Apr 19 04:54:29 | 98.8296 | 0.01385 | 6.6181 | 252.2330 | 306.8638 | 14.06380 | – |
| 2026 Apr 21 17:57 | 2026 Apr 19 04:54:29 | 98.8296 | 0.01385 | 6.6181 | 252.2330 | 306.8638 | 14.06380 | – |
| 2026 Apr 20 17:57 | 2026 Apr 19 04:54:29 | 98.8296 | 0.01385 | 6.6181 | 252.2330 | 306.8638 | 14.06380 | – |
| 2026 Apr 19 17:58 | 2026 Apr 19 04:54:29 | 98.8296 | 0.01385 | 6.6181 | 252.2330 | 306.8638 | 14.06380 | – |
| 2026 Apr 18 17:56 | 2026 Apr 13 05:28:01 | 98.8294 | 0.01384 | 6.2292 | 269.1641 | 306.8638 | 14.06380 | – |
| 2026 Apr 16 17:57 | 2026 Apr 13 05:28:01 | 98.8294 | 0.01384 | 6.2292 | 269.1641 | 306.8638 | 14.06380 | – |
| 2026 Apr 14 17:57 | 2026 Apr 13 05:28:01 | 98.8294 | 0.01384 | 6.2292 | 269.1641 | 306.8638 | 14.06380 | – |
| 2026 Apr 13 17:57 | 2026 Apr 13 05:28:01 | 98.8294 | 0.01384 | 6.2292 | 269.1641 | 306.8638 | 14.06380 | – |
| 2026 Apr 12 17:57 | 2026 Apr 08 11:37:48 | 98.8294 | 0.01385 | 5.9206 | 282.5827 | 306.8638 | 14.06380 | – |
| 2026 Apr 11 17:57 | 2026 Apr 08 11:37:48 | 98.8294 | 0.01385 | 5.9206 | 282.5827 | 306.8638 | 14.06380 | – |
| 2026 Apr 10 17:58 | 2026 Apr 08 11:37:48 | 98.8294 | 0.01385 | 5.9206 | 282.5827 | 306.8638 | 14.06380 | – |
| 2026 Apr 09 18:01 | 2026 Apr 08 11:37:48 | 98.8294 | 0.01385 | 5.9206 | 282.5827 | 306.8638 | 14.06380 | – |
| 2026 Apr 08 17:57 | 2026 Apr 08 11:37:48 | 98.8294 | 0.01385 | 5.9206 | 282.5827 | 306.8638 | 14.06380 | – |